Time;durP1;ratioP1;P1;durP2;ratioP2;P2;SDS_P1;SDS_P2;PMS_P1;PMS_P2;Temp;Humidity;BMP_temperature;BMP_pressure;BME280_temperature;BME280_humidity;BME280_pressure;Samples;Min_cycle;Max_cycle;Signal;HPM_P1;HPM_P2
2024/02/19 00:01:51;;;;;;;;;;;;;;;26.13;39.96;95356.56;4975141;28;9661;-56
2024/02/19 00:04:31;;;;;;;;;;;;;;;26.13;39.93;95353.81;4975349;28;7342;-38
2024/02/19 00:07:18;;;;;;;;;;;;;;;26.15;39.55;95356.06;4974863;28;7187;-37
2024/02/19 00:09:57;;;;;;;;;;;;;;;26.11;39.78;95359.06;4975151;28;9404;-37
2024/02/19 00:12:24;;;;;;;;;;;;;;;26.13;39.83;95364.81;4974239;28;9154;-54
2024/02/19 00:15:08;;;;;;;;;;;;;;;26.09;39.00;95353.28;4958947;28;6984;-39
2024/02/19 00:17:44;;;;;;;;;;;;;;;26.10;39.66;95349.25;5004240;28;7206;-39
2024/02/19 00:20:18;;;;;;;;;;;;;;;26.09;39.92;95339.50;5018383;28;9009;-39
2024/02/19 00:22:50;;;;;;;;;;;;;;;26.11;39.78;95339.75;5018122;28;7054;-39
2024/02/19 00:25:46;;;;;;;;;;;;;;;26.09;39.10;95331.22;5018105;28;8764;-39
2024/02/19 00:28:24;;;;;;;;;;;;;;;26.08;39.65;95334.41;4977571;28;7250;-39
2024/02/19 00:31:01;;;;;;;;;;;;;;;26.07;39.38;95324.66;4994045;28;7199;-39
2024/02/19 00:33:53;;;;;;;;;;;;;;;26.08;39.65;95315.91;4978214;28;7434;-39
2024/02/19 00:36:29;;;;;;;;;;;;;;;26.06;39.68;95312.84;4994186;28;9034;-39
2024/02/19 00:38:54;;;;;;;;;;;;;;;26.03;39.64;95311.06;4994350;28;7349;-40
2024/02/19 00:41:22;;;;;;;;;;;;;;;26.07;39.51;95325.41;4977628;28;7232;-39
2024/02/19 00:43:59;;;;;;;;;;;;;;;26.03;39.18;95319.34;4993362;28;7018;-38
2024/02/19 00:46:27;;;;;;;;;;;;;;;26.05;39.94;95324.38;4992608;28;7369;-38
2024/02/19 00:48:53;;;;;;;;;;;;;;;26.05;39.75;95327.91;4974659;28;8919;-39
2024/02/19 00:51:18;;;;;;;;;;;;;;;26.01;39.19;95313.56;4991010;28;7050;-38
2024/02/19 00:53:47;;;;;;;;;;;;;;;26.03;39.44;95324.13;4974852;28;7203;-39
2024/02/19 00:56:12;;;;;;;;;;;;;;;26.04;39.73;95331.91;4988020;28;7346;-39
2024/02/19 00:58:38;;;;;;;;;;;;;;;26.04;39.68;95329.13;4968209;28;7235;-39
2024/02/19 01:01:04;;;;;;;;;;;;;;;26.05;39.09;95332.66;4991212;28;7222;-39
2024/02/19 01:03:32;;;;;;;;;;;;;;;26.05;39.05;95332.66;4978575;28;9088;-39
2024/02/19 01:05:58;;;;;;;;;;;;;;;26.03;39.50;95335.88;5027553;28;7000;-39
2024/02/19 01:08:24;;;;;;;;;;;;;;;26.03;39.80;95341.41;5031944;28;7088;-38
2024/02/19 01:11:04;;;;;;;;;;;;;;;26.04;39.16;95344.91;5034348;28;7147;-39
2024/02/19 01:17:17;;;;;;;;;;;;;;;26.01;39.81;95343.16;5054644;28;9064;-39
2024/02/19 01:19:52;;;;;;;;;;;;;;;26.01;39.82;95354.19;4954239;28;7014;-39
2024/02/19 01:22:40;;;;;;;;;;;;;;;26.00;39.19;95347.16;4938749;28;8814;-40
2024/02/19 01:25:30;;;;;;;;;;;;;;;25.99;39.08;95351.16;4938398;28;9051;-41
2024/02/19 01:28:06;;;;;;;;;;;;;;;25.99;39.41;95343.63;4954246;28;7234;-40
2024/02/19 01:30:35;;;;;;;;;;;;;;;25.97;39.91;95346.13;4933213;29;8865;-42
2024/02/19 01:33:21;;;;;;;;;;;;;;;25.97;40.05;95348.88;4919477;29;9269;-41
2024/02/19 01:35:57;;;;;;;;;;;;;;;25.95;39.44;95356.88;4919428;29;7231;-42
2024/02/19 01:38:41;;;;;;;;;;;;;;;25.96;39.35;95363.94;4919156;29;7238;-40
2024/02/19 01:41:12;;;;;;;;;;;;;;;25.95;39.10;95359.66;4919443;29;9467;-40
2024/02/19 01:43:40;;;;;;;;;;;;;;;25.95;39.58;95359.66;4934354;28;7853;-40
2024/02/19 01:46:24;;;;;;;;;;;;;;;25.95;39.75;95356.88;4919228;29;7232;-42
2024/02/19 01:49:30;;;;;;;;;;;;;;;25.96;39.68;95350.16;4937866;29;7200;-40
2024/02/19 01:51:56;;;;;;;;;;;;;;;25.96;39.55;95346.63;4936761;29;7199;-41
2024/02/19 01:54:23;;;;;;;;;;;;;;;25.96;39.16;95341.88;5014007;28;7258;-40
2024/02/19 01:56:53;;;;;;;;;;;;;;;25.96;39.49;95335.59;5036239;28;6993;-41
2024/02/19 01:59:53;;;;;;;;;;;;;;;25.94;39.45;95333.34;5036303;28;7545;-40
2024/02/19 02:02:20;;;;;;;;;;;;;;;25.95;39.43;95337.59;4953719;29;7326;-40
2024/02/19 02:05:05;;;;;;;;;;;;;;;25.95;39.19;95343.09;4938152;29;7248;-40
2024/02/19 02:08:01;;;;;;;;;;;;;;;25.94;39.34;95340.84;4938049;29;7010;-40
2024/02/19 02:10:28;;;;;;;;;;;;;;;25.95;39.97;95336.84;4937899;29;7509;-40
2024/02/19 02:13:22;;;;;;;;;;;;;;;25.94;39.36;95327.84;4938100;29;7079;-41
2024/02/19 02:15:48;;;;;;;;;;;;;;;25.93;40.01;95333.81;4953850;29;8751;-40
2024/02/19 02:18:15;;;;;;;;;;;;;;;25.92;39.15;95326.81;4943683;29;7220;-40
2024/02/19 02:20:44;;;;;;;;;;;;;;;25.92;39.68;95333.09;4937967;29;7081;-41
2024/02/19 02:23:25;;;;;;;;;;;;;;;25.91;38.93;95326.03;4937909;29;7034;-40
2024/02/19 02:26:05;;;;;;;;;;;;;;;25.92;39.61;95319.31;4938243;29;9107;-41
2024/02/19 02:28:52;;;;;;;;;;;;;;;25.92;39.05;95324.81;4937647;29;7076;-40
2024/02/19 02:31:20;;;;;;;;;;;;;;;25.88;39.77;95332.53;4937866;29;7275;-40
2024/02/19 02:33:48;;;;;;;;;;;;;;;25.93;39.55;95331.06;4938028;29;7023;-41
2024/02/19 02:36:34;;;;;;;;;;;;;;;25.94;39.10;95344.38;4941526;28;7256;-40
2024/02/19 02:39:01;;;;;;;;;;;;;;;25.92;39.61;95341.34;5041641;28;7258;-41
2024/02/19 02:41:28;;;;;;;;;;;;;;;25.92;39.83;95327.56;5038550;28;7434;-41
2024/02/19 02:43:55;;;;;;;;;;;;;;;25.90;39.75;95324.53;5055339;28;9134;-41
2024/02/19 02:46:25;;;;;;;;;;;;;;;25.90;39.41;95326.53;5038155;28;7241;-42
2024/02/19 02:48:53;;;;;;;;;;;;;;;25.90;39.30;95321.75;5038370;28;7071;-40
2024/02/19 02:51:19;;;;;;;;;;;;;;;25.88;39.70;95321.50;5055220;28;8874;-40
2024/02/19 02:53:47;;;;;;;;;;;;;;;25.89;39.70;95325.78;5034734;28;7208;-40
2024/02/19 02:56:20;;;;;;;;;;;;;;;25.88;39.19;95334.56;5036596;28;9162;-40
2024/02/19 02:59:00;;;;;;;;;;;;;;;25.89;39.69;95334.06;5043585;28;7178;-41
2024/02/19 03:01:35;;;;;;;;;;;;;;;25.88;39.86;95324.25;5055035;28;7273;-40
2024/02/19 03:04:01;;;;;;;;;;;;;;;25.90;40.02;95316.25;5046884;28;9118;-41
2024/02/19 03:06:34;;;;;;;;;;;;;;;25.89;39.98;95317.50;5039024;28;7143;-40
2024/02/19 03:09:05;;;;;;;;;;;;;;;25.88;39.96;95318.75;5039705;28;9086;-41
2024/02/19 03:11:38;;;;;;;;;;;;;;;25.86;39.13;95315.72;5039109;28;7271;-42
2024/02/19 03:14:13;;;;;;;;;;;;;;;25.86;39.90;95304.69;5043193;28;8310;-40
2024/02/19 03:16:58;;;;;;;;;;;;;;;25.88;39.86;95315.25;5038977;28;9263;-42
2024/02/19 03:19:26;;;;;;;;;;;;;;;25.88;39.34;95324.25;5055251;28;9180;-41
2024/02/19 03:21:54;;;;;;;;;;;;;;;25.88;39.43;95318.75;5038672;28;7279;-40
2024/02/19 03:24:26;;;;;;;;;;;;;;;25.89;39.23;95314.00;5052119;28;7202;-40
2024/02/19 03:27:25;;;;;;;;;;;;;;;25.86;39.25;95312.97;5019297;28;6987;-40
2024/02/19 03:30:21;;;;;;;;;;;;;;;25.84;40.15;95307.19;5031797;28;8599;-40
2024/02/19 03:33:31;;;;;;;;;;;;;;;25.83;39.75;95300.19;5014745;28;7368;-41
2024/02/19 03:36:00;;;;;;;;;;;;;;;25.81;39.70;95301.91;4998179;28;7108;-40
2024/02/19 03:38:42;;;;;;;;;;;;;;;25.80;40.10;95300.41;4997917;28;7286;-40
2024/02/19 03:41:24;;;;;;;;;;;;;;;25.81;40.02;95286.16;4995789;28;6997;-40
2024/02/19 03:43:50;;;;;;;;;;;;;;;25.82;39.55;95287.66;4997744;28;7485;-55
2024/02/19 03:46:16;;;;;;;;;;;;;;;25.79;39.12;95288.63;5013740;28;9006;-55
2024/02/19 03:49:01;;;;;;;;;;;;;;;25.81;39.29;95288.91;4997495;28;8709;-55
2024/02/19 03:51:27;;;;;;;;;;;;;;;25.80;40.12;95283.84;4998089;28;7007;-55
2024/02/19 03:53:55;;;;;;;;;;;;;;;25.76;39.19;95289.59;4994695;28;7168;-55
2024/02/19 03:56:26;;;;;;;;;;;;;;;25.78;39.71;95291.88;4995724;28;7878;-55
2024/02/19 03:58:54;;;;;;;;;;;;;;;25.79;39.04;95298.91;5014356;28;7357;-55
2024/02/19 04:01:51;;;;;;;;;;;;;;;25.79;39.48;95304.41;5014333;28;7135;-55
2024/02/19 04:04:29;;;;;;;;;;;;;;;25.79;40.21;95298.91;4950667;28;7354;-55
2024/02/19 04:07:08;;;;;;;;;;;;;;;25.78;40.04;95298.13;4955278;28;7217;-55
2024/02/19 04:09:38;;;;;;;;;;;;;;;25.77;39.14;95291.13;4939502;28;7324;-55
2024/02/19 04:12:08;;;;;;;;;;;;;;;25.79;39.59;95293.38;4954888;28;6994;-55
2024/02/19 04:14:47;;;;;;;;;;;;;;;25.79;39.29;95282.38;4967664;28;7243;-55
2024/02/19 04:17:45;;;;;;;;;;;;;;;25.78;39.31;95289.88;4958555;28;9040;-55
2024/02/19 04:20:31;;;;;;;;;;;;;;;25.79;39.71;95277.63;4958546;28;7238;-55
2024/02/19 04:23:14;;;;;;;;;;;;;;;25.77;39.10;95279.34;4974450;28;7318;-55
2024/02/19 04:25:56;;;;;;;;;;;;;;;25.78;39.16;95280.84;4974589;28;7228;-55
2024/02/19 04:28:23;;;;;;;;;;;;;;;25.77;39.54;95284.84;4974576;28;7346;-55
2024/02/19 04:31:00;;;;;;;;;;;;;;;25.75;39.93;95282.56;4974792;28;7253;-55
2024/02/19 04:33:36;;;;;;;;;;;;;;;25.76;39.00;95283.34;4974459;28;6983;-55
2024/02/19 04:36:20;;;;;;;;;;;;;;;25.76;39.73;95281.34;4958530;28;7074;-55
2024/02/19 04:39:08;;;;;;;;;;;;;;;25.73;39.13;95279.56;4958067;28;7237;-55
2024/02/19 04:41:54;;;;;;;;;;;;;;;25.77;39.10;95290.38;5043146;28;7243;-55
2024/02/19 04:44:20;;;;;;;;;;;;;;;25.76;40.05;95294.34;5054783;28;8884;-55
2024/02/19 04:46:48;;;;;;;;;;;;;;;25.74;39.81;95283.84;5035687;28;6860;-55
2024/02/19 04:49:16;;;;;;;;;;;;;;;25.76;39.19;95281.34;5044258;28;8696;-55
2024/02/19 04:51:42;;;;;;;;;;;;;;;25.73;39.43;95287.81;5053092;28;9152;-55
2024/02/19 04:54:08;;;;;;;;;;;;;;;25.74;39.23;95283.06;5034939;28;9175;-38
2024/02/19 04:56:41;;;;;;;;;;;;;;;25.75;39.38;95288.09;5033579;28;7081;-38
2024/02/19 04:59:10;;;;;;;;;;;;;;;25.73;39.49;95279.56;5042323;28;7065;-38
2024/02/19 05:01:38;;;;;;;;;;;;;;;25.75;39.39;95282.56;5036792;28;9050;-37
2024/02/19 05:04:04;;;;;;;;;;;;;;;25.75;39.34;95279.81;5052857;28;8889;-39
2024/02/19 05:06:31;;;;;;;;;;;;;;;25.77;39.66;95284.84;5032083;28;7033;-38
2024/02/19 05:08:57;;;;;;;;;;;;;;;25.75;39.26;95277.06;5029443;28;7270;-38
2024/02/19 05:11:23;;;;;;;;;;;;;;;25.74;39.24;95278.31;5053923;28;9551;-38
2024/02/19 05:13:58;;;;;;;;;;;;;;;25.74;39.18;95286.59;5036835;28;7249;-39
2024/02/19 05:16:26;;;;;;;;;;;;;;;25.72;39.53;95282.81;5036574;28;7617;-38
2024/02/19 05:19:00;;;;;;;;;;;;;;;25.70;39.10;95280.56;5054324;28;7527;-38
2024/02/19 05:21:27;;;;;;;;;;;;;;;25.73;39.42;95292.59;5054276;28;7407;-38
2024/02/19 05:23:57;;;;;;;;;;;;;;;25.70;39.25;95285.31;5036751;28;7222;-38
2024/02/19 05:26:26;;;;;;;;;;;;;;;25.71;39.43;95282.06;5054342;28;7043;-38
2024/02/19 05:28:56;;;;;;;;;;;;;;;25.70;39.81;95274.28;5054337;28;7065;-37
2024/02/19 05:31:37;;;;;;;;;;;;;;;25.72;39.00;95288.31;5044492;28;8793;-38
2024/02/19 05:34:04;;;;;;;;;;;;;;;25.72;39.15;95289.09;5036605;28;8821;-37
2024/02/19 05:36:31;;;;;;;;;;;;;;;25.72;39.09;95285.56;5021377;28;7196;-38
2024/02/19 05:38:58;;;;;;;;;;;;;;;25.70;39.86;95288.81;5052503;28;9161;-38
2024/02/19 05:41:26;;;;;;;;;;;;;;;25.70;39.27;95288.81;5052371;28;8712;-39
2024/02/19 05:44:02;;;;;;;;;;;;;;;25.70;39.88;95293.56;5036009;28;7123;-38
2024/02/19 05:46:35;;;;;;;;;;;;;;;25.70;39.40;95294.34;5036419;28;7486;-38
2024/02/19 05:49:15;;;;;;;;;;;;;;;25.73;39.98;95309.13;5044856;28;7045;-37
2024/02/19 05:51:44;;;;;;;;;;;;;;;25.68;39.47;95301.56;5033570;28;7123;-38
2024/02/19 05:54:10;;;;;;;;;;;;;;;25.67;39.86;95298.06;5032889;28;7489;-38
2024/02/19 05:56:49;;;;;;;;;;;;;;;25.66;39.68;95304.06;5047145;28;8670;-37
2024/02/19 05:59:15;;;;;;;;;;;;;;;25.67;39.30;95300.81;5052819;28;7068;-38
2024/02/19 06:01:47;;;;;;;;;;;;;;;25.70;39.22;95305.34;5036863;28;7252;-37
2024/02/19 06:04:21;;;;;;;;;;;;;;;25.70;39.62;95304.59;5037021;28;7233;-40
2024/02/19 06:06:47;;;;;;;;;;;;;;;25.66;39.27;95301.31;5036633;28;6980;-38
2024/02/19 06:09:23;;;;;;;;;;;;;;;25.66;39.17;95304.81;5053542;28;7101;-38
2024/02/19 06:11:51;;;;;;;;;;;;;;;25.64;39.74;95304.56;5043432;28;7887;-39
2024/02/19 06:14:19;;;;;;;;;;;;;;;25.66;39.70;95312.31;5040504;28;9263;-38
2024/02/19 06:16:47;;;;;;;;;;;;;;;25.64;39.64;95301.81;5056548;28;9330;-39
2024/02/19 06:19:15;;;;;;;;;;;;;;;25.64;39.20;95310.06;5040347;28;7118;-39
2024/02/19 06:21:52;;;;;;;;;;;;;;;25.64;39.31;95310.06;5055038;28;9035;-39
2024/02/19 06:24:37;;;;;;;;;;;;;;;25.64;39.29;95309.31;5057964;28;8763;-39
2024/02/19 06:27:13;;;;;;;;;;;;;;;25.65;39.36;95316.31;5057906;28;9435;-38
2024/02/19 06:29:59;;;;;;;;;;;;;;;25.65;39.25;95313.56;5057365;28;7278;-38
2024/02/19 06:32:32;;;;;;;;;;;;;;;25.63;39.81;95314.06;5056001;28;7985;-39
2024/02/19 06:35:18;;;;;;;;;;;;;;;25.65;39.17;95316.31;5040053;28;7688;-38
2024/02/19 06:37:44;;;;;;;;;;;;;;;25.64;39.92;95321.09;5057505;28;9083;-39
2024/02/19 06:40:13;;;;;;;;;;;;;;;25.65;39.36;95319.84;5044365;28;7244;-38
2024/02/19 06:42:42;;;;;;;;;;;;;;;25.64;39.46;95317.56;5038502;28;7877;-39
2024/02/19 06:45:08;;;;;;;;;;;;;;;25.62;39.62;95329.06;5055030;28;6969;-39
2024/02/19 06:47:36;;;;;;;;;;;;;;;25.62;39.02;95323.56;5053979;28;7261;-39
2024/02/19 06:50:04;;;;;;;;;;;;;;;25.62;39.65;95329.06;5033941;28;7332;-39
2024/02/19 06:52:30;;;;;;;;;;;;;;;25.61;39.64;95332.31;5045809;28;8796;-40
2024/02/19 06:54:56;;;;;;;;;;;;;;;25.60;39.55;95342.56;5038876;28;9068;-38
2024/02/19 06:57:28;;;;;;;;;;;;;;;25.62;39.18;95348.34;5039654;28;7221;-38
2024/02/19 07:00:05;;;;;;;;;;;;;;;25.61;39.15;95348.84;5057219;28;7004;-40
2024/02/19 07:02:41;;;;;;;;;;;;;;;25.62;39.39;95356.63;5053612;28;9047;-40
2024/02/19 07:05:14;;;;;;;;;;;;;;;25.60;39.59;95352.84;5039540;28;7075;-39
2024/02/19 07:07:40;;;;;;;;;;;;;;;25.62;38.98;95356.63;5056099;28;8843;-39
2024/02/19 07:10:36;;;;;;;;;;;;;;;25.60;39.32;95361.84;5056194;28;7145;-40
2024/02/19 07:13:11;;;;;;;;;;;;;;;25.61;39.55;95368.91;4941106;28;8951;-42
2024/02/19 07:15:57;;;;;;;;;;;;;;;25.58;39.37;95372.59;4940677;28;7136;-40
2024/02/19 07:18:36;;;;;;;;;;;;;;;25.59;39.67;95371.38;4930942;29;7268;-41
2024/02/19 07:25:03;;;;;;;;;;;;;;;25.60;39.11;95377.66;4862150;29;9461;-40
2024/02/19 07:27:45;;;;;;;;;;;;;;;25.59;39.81;95382.41;4862530;29;9134;-41
2024/02/19 07:30:28;;;;;;;;;;;;;;;25.61;39.97;95390.94;4862385;29;9093;-40
2024/02/19 07:33:03;;;;;;;;;;;;;;;25.61;39.71;95384.66;4861578;29;8460;-40
2024/02/19 07:35:30;;;;;;;;;;;;;;;25.56;39.43;95386.13;4861006;29;6983;-40
2024/02/19 07:38:05;;;;;;;;;;;;;;;25.58;39.57;95394.66;4853952;29;7336;-41
2024/02/19 07:40:32;;;;;;;;;;;;;;;25.57;39.47;95401.41;4861442;29;9192;-41
2024/02/19 07:43:01;;;;;;;;;;;;;;;25.58;39.32;95404.94;4862155;29;7270;-41
2024/02/19 07:45:40;;;;;;;;;;;;;;;25.60;39.63;95410.72;4831351;29;8795;-40
2024/02/19 07:48:26;;;;;;;;;;;;;;;25.58;40.13;95413.94;4861869;29;7106;-41
2024/02/19 07:51:30;;;;;;;;;;;;;;;25.54;39.66;95427.16;4937190;29;9126;-40
2024/02/19 07:53:57;;;;;;;;;;;;;;;25.55;39.69;95431.44;4917955;29;8743;-41
2024/02/19 07:56:23;;;;;;;;;;;;;;;25.51;39.61;95436.44;4918011;29;8723;-40
2024/02/19 07:58:49;;;;;;;;;;;;;;;25.55;39.66;95430.69;4917503;29;6987;-40
2024/02/19 08:01:16;;;;;;;;;;;;;;;25.55;40.03;95439.72;4950374;28;7700;-40
2024/02/19 08:03:53;;;;;;;;;;;;;;;25.55;40.25;95450.75;4994200;28;7023;-41
2024/02/19 08:06:32;;;;;;;;;;;;;;;25.57;39.09;95442.75;4958675;28;9039;-40
2024/02/19 08:09:10;;;;;;;;;;;;;;;25.53;39.57;95447.72;4975077;28;7570;-41
2024/02/19 08:12:08;;;;;;;;;;;;;;;25.53;39.68;95453.22;4974904;28;7291;-41
2024/02/19 08:14:50;;;;;;;;;;;;;;;25.55;39.66;95450.75;4864423;29;9006;-41
2024/02/19 08:17:29;;;;;;;;;;;;;;;25.55;39.15;95445.22;4879707;29;7075;-40
2024/02/19 08:20:06;;;;;;;;;;;;;;;25.55;39.51;95441.72;4879978;29;9114;-41
2024/02/19 08:22:40;;;;;;;;;;;;;;;25.56;39.60;95446.72;4881552;29;9073;-37
2024/02/19 08:25:18;;;;;;;;;;;;;;;25.54;39.17;95443.69;4913997;29;6984;-37
2024/02/19 08:28:04;;;;;;;;;;;;;;;25.51;39.37;95439.19;4936288;29;8749;-37
2024/02/19 08:30:39;;;;;;;;;;;;;;;25.54;39.08;95448.44;4920840;29;9632;-36
2024/02/19 08:33:05;;;;;;;;;;;;;;;25.52;39.64;95446.19;4931889;29;9604;-37
2024/02/19 08:35:50;;;;;;;;;;;;;;;25.53;39.55;95453.22;4900544;29;7240;-37
2024/02/19 08:38:44;;;;;;;;;;;;;;;25.54;39.15;95454.72;4901164;29;7323;-39
2024/02/19 08:41:21;;;;;;;;;;;;;;;25.52;39.05;95456.44;4916895;29;7292;-38
2024/02/19 08:44:04;;;;;;;;;;;;;;;25.50;39.57;95453.41;4901474;29;7179;-37
2024/02/19 08:46:40;;;;;;;;;;;;;;;25.50;39.99;95467.19;4901474;29;9051;-37
2024/02/19 08:49:09;;;;;;;;;;;;;;;25.48;40.04;95459.41;4902665;29;7288;-36
2024/02/19 08:51:35;;;;;;;;;;;;;;;25.48;39.70;95461.41;5003852;28;6982;-37
2024/02/19 08:54:01;;;;;;;;;;;;;;;25.47;39.61;95459.91;5049780;28;7171;-36
2024/02/19 08:56:29;;;;;;;;;;;;;;;25.46;39.90;95447.38;5033621;28;8133;-37
2024/02/19 08:58:55;;;;;;;;;;;;;;;25.51;39.17;95463.97;5021314;28;7196;-37
2024/02/19 09:01:21;;;;;;;;;;;;;;;25.50;40.16;95467.94;5042894;28;7346;-36
2024/02/19 09:03:52;;;;;;;;;;;;;;;25.52;39.50;95473.72;5037021;28;7396;-37
2024/02/19 09:06:25;;;;;;;;;;;;;;;25.51;39.68;95472.22;5054952;28;7623;-36
2024/02/19 09:09:11;;;;;;;;;;;;;;;25.52;39.94;95470.22;5037012;28;8733;-37
2024/02/19 09:11:36;;;;;;;;;;;;;;;25.48;39.32;95475.19;5035223;28;9169;-37
2024/02/19 09:14:05;;;;;;;;;;;;;;;25.51;39.71;95469.47;5031590;28;9160;-37
2024/02/19 09:16:31;;;;;;;;;;;;;;;25.51;39.14;95480.50;5031735;28;9431;-37
2024/02/19 09:18:59;;;;;;;;;;;;;;;25.48;39.04;95478.69;5036435;28;7789;-37
2024/02/19 09:21:46;;;;;;;;;;;;;;;25.50;39.01;95483.72;5053869;28;7973;-36
2024/02/19 09:24:12;;;;;;;;;;;;;;;25.47;39.27;95482.69;5053671;28;7641;-37
2024/02/19 09:26:38;;;;;;;;;;;;;;;25.50;39.05;95494.72;5053339;28;7454;-37
2024/02/19 09:29:09;;;;;;;;;;;;;;;25.50;39.41;95491.97;5036409;28;6984;-37
2024/02/19 09:31:39;;;;;;;;;;;;;;;25.49;39.30;95490.47;5032876;28;7445;-36
2024/02/19 09:34:41;;;;;;;;;;;;;;;25.49;39.75;95484.97;5033840;28;7133;-40
2024/02/19 09:37:15;;;;;;;;;;;;;;;25.46;39.51;95481.19;4973194;28;7274;-40
2024/02/19 09:40:28;;;;;;;;;;;;;;;25.49;39.13;95496.72;4962003;28;8729;-40
2024/02/19 09:42:54;;;;;;;;;;;;;;;25.49;39.70;95490.47;4957393;28;7278;-40
2024/02/19 09:45:23;;;;;;;;;;;;;;;25.48;40.04;95486.97;4957059;28;6998;-41
2024/02/19 09:48:02;;;;;;;;;;;;;;;25.48;39.91;95484.22;4967893;28;8793;-42
2024/02/19 09:50:48;;;;;;;;;;;;;;;25.49;39.65;95485.72;4976912;28;8625;-39
2024/02/19 09:53:27;;;;;;;;;;;;;;;25.48;39.65;95486.19;4973303;28;7226;-41
2024/02/19 09:55:53;;;;;;;;;;;;;;;25.46;39.75;95486.69;4970193;28;7278;-40
2024/02/19 09:58:21;;;;;;;;;;;;;;;25.46;39.92;95483.94;4977425;28;8990;-41
2024/02/19 10:01:08;;;;;;;;;;;;;;;25.49;39.52;95490.47;4976347;28;7292;-40
2024/02/19 10:03:56;;;;;;;;;;;;;;;25.49;39.85;95488.47;4976485;28;7139;-41
2024/02/19 10:06:44;;;;;;;;;;;;;;;25.49;38.97;95491.22;4976779;28;7245;-40
2024/02/19 10:09:11;;;;;;;;;;;;;;;25.49;39.47;95491.22;4972991;28;7075;-40
2024/02/19 10:11:55;;;;;;;;;;;;;;;25.49;39.06;95485.72;4976143;28;7705;-40
2024/02/19 10:14:23;;;;;;;;;;;;;;;25.50;39.93;95478.97;5044257;28;9224;-40
2024/02/19 10:16:57;;;;;;;;;;;;;;;25.49;39.63;95485.72;5026234;28;7061;-41
2024/02/19 10:19:25;;;;;;;;;;;;;;;25.51;39.53;95490.75;5052994;28;7018;-40
2024/02/19 10:21:54;;;;;;;;;;;;;;;25.51;39.54;95488.00;5036722;28;7295;-41
2024/02/19 10:24:26;;;;;;;;;;;;;;;25.49;39.10;95488.47;5019362;28;9559;-40
2024/02/19 10:26:52;;;;;;;;;;;;;;;25.51;39.60;95497.03;5031534;28;6978;-40
2024/02/19 10:29:51;;;;;;;;;;;;;;;25.50;38.99;95498.25;5048120;28;7456;-41
2024/02/19 10:32:34;;;;;;;;;;;;;;;25.49;39.00;95499.47;4932311;29;7075;-42
2024/02/19 10:35:02;;;;;;;;;;;;;;;25.52;39.31;95506.03;4938013;29;8788;-40
2024/02/19 10:37:38;;;;;;;;;;;;;;;25.49;39.00;95507.75;4953932;29;7014;-40
2024/02/19 10:43:57;;;;;;;;;;;;;;;25.50;38.97;95501.00;4957262;28;8792;-41
2024/02/19 10:47:11;;;;;;;;;;;;;;;25.51;39.12;95510.81;4952939;29;7296;-41
2024/02/19 10:50:04;;;;;;;;;;;;;;;25.50;38.84;95508.50;4953701;29;7260;-41
2024/02/19 10:52:33;;;;;;;;;;;;;;;25.49;39.79;95507.75;4937541;29;7307;-39
2024/02/19 10:55:00;;;;;;;;;;;;;;;25.49;39.13;95507.00;4938041;29;7075;-41
2024/02/19 10:57:32;;;;;;;;;;;;;;;25.48;39.33;95502.72;4936521;29;7210;-42
2024/02/19 11:00:11;;;;;;;;;;;;;;;25.48;38.96;95499.97;4944626;28;9060;-40
2024/02/19 11:02:38;;;;;;;;;;;;;;;25.49;39.59;95515.28;4939514;28;7192;-40
2024/02/19 11:05:13;;;;;;;;;;;;;;;25.48;39.22;95495.22;4935936;29;7016;-40
2024/02/19 11:07:42;;;;;;;;;;;;;;;25.49;39.38;95493.97;4969570;28;7289;-43
2024/02/19 11:10:09;;;;;;;;;;;;;;;25.49;39.51;95501.50;5037931;28;7980;-40
2024/02/19 11:12:40;;;;;;;;;;;;;;;25.47;39.34;95499.22;5040233;28;7112;-41
2024/02/19 11:15:17;;;;;;;;;;;;;;;25.48;39.58;95486.19;5054483;28;7181;-41
2024/02/19 11:17:44;;;;;;;;;;;;;;;25.47;38.55;95488.19;5055601;28;7004;-41
2024/02/19 11:20:24;;;;;;;;;;;;;;;25.45;38.95;95479.66;5052828;28;9137;-40
2024/02/19 11:23:09;;;;;;;;;;;;;;;25.45;39.46;95479.66;5055712;28;7478;-42
2024/02/19 11:25:39;;;;;;;;;;;;;;;25.46;39.08;95478.44;5038043;28;8173;-40
2024/02/19 11:28:35;;;;;;;;;;;;;;;25.46;39.55;95475.69;5056532;28;9038;-41
2024/02/19 11:31:02;;;;;;;;;;;;;;;25.46;39.51;95475.69;5055572;28;7250;-40
2024/02/19 11:33:40;;;;;;;;;;;;;;;25.46;39.52;95477.66;5038826;28;7252;-41
2024/02/19 11:36:15;;;;;;;;;;;;;;;25.46;38.83;95474.91;5055865;28;9064;-40
2024/02/19 11:38:51;;;;;;;;;;;;;;;25.45;38.52;95465.88;5048035;28;7004;-40
2024/02/19 11:41:29;;;;;;;;;;;;;;;25.38;39.26;95447.75;5034827;28;9914;-40
2024/02/19 11:43:58;;;;;;;;;;;;;;;25.42;39.18;95450.34;5035600;28;7089;-41
2024/02/19 11:46:33;;;;;;;;;;;;;;;25.43;39.35;95460.09;5039179;28;6994;-40
2024/02/19 11:49:00;;;;;;;;;;;;;;;25.46;39.26;95453.63;5037296;28;7172;-41
2024/02/19 11:51:29;;;;;;;;;;;;;;;25.40;38.66;95453.53;5054375;28;7286;-40
2024/02/19 11:53:59;;;;;;;;;;;;;;;25.41;39.15;95452.31;5038144;28;7155;-37
2024/02/19 11:56:26;;;;;;;;;;;;;;;25.40;38.89;95450.03;5054608;28;7939;-37
2024/02/19 11:58:52;;;;;;;;;;;;;;;25.40;38.84;95450.03;5054925;28;6985;-37
2024/02/19 12:01:32;;;;;;;;;;;;;;;25.39;38.99;95440.25;5055863;28;7126;-37
2024/02/19 12:07:42;;;;;;;;;;;;;;;25.41;38.83;95424.00;5055462;28;7251;-37
2024/02/19 12:10:24;;;;;;;;;;;;;;;25.41;38.72;95422.00;5054665;28;7493;-37
2024/02/19 12:12:54;;;;;;;;;;;;;;;25.41;39.16;95418.50;5054759;28;6978;-37
2024/02/19 12:15:28;;;;;;;;;;;;;;;25.41;39.37;95407.47;5037904;28;7836;-37
2024/02/19 12:17:53;;;;;;;;;;;;;;;25.42;39.27;95403.53;5037869;28;7115;-37
2024/02/19 12:20:22;;;;;;;;;;;;;;;25.41;39.08;95386.22;5047493;28;6998;-37
2024/02/19 12:22:55;;;;;;;;;;;;;;;25.47;38.78;95380.75;5033962;28;9167;-37
2024/02/19 12:25:21;;;;;;;;;;;;;;;25.49;39.32;95378.28;5037582;28;7115;-38
2024/02/19 12:27:57;;;;;;;;;;;;;;;25.46;39.59;95381.25;5054499;28;7090;-36
2024/02/19 12:30:30;;;;;;;;;;;;;;;25.40;39.23;95383.94;5055425;28;7232;-37
2024/02/19 12:32:56;;;;;;;;;;;;;;;25.42;39.21;95387.00;5055685;28;6936;-37
2024/02/19 12:35:51;;;;;;;;;;;;;;;25.45;38.65;95375.00;5054099;28;7163;-37
2024/02/19 12:38:18;;;;;;;;;;;;;;;25.47;39.80;95366.25;4969296;28;9912;-37
2024/02/19 12:40:45;;;;;;;;;;;;;;;25.48;39.90;95367.75;4976790;28;7254;-37
2024/02/19 12:43:11;;;;;;;;;;;;;;;25.48;39.41;95357.50;4963886;28;6993;-37
2024/02/19 12:45:37;;;;;;;;;;;;;;;25.46;39.59;95332.44;4956418;28;7074;-37
2024/02/19 12:48:06;;;;;;;;;;;;;;;25.53;39.09;95343.03;4988827;28;7965;-37
2024/02/19 12:50:33;;;;;;;;;;;;;;;25.55;39.28;95337.03;4992613;28;7251;-36
2024/02/19 12:53:01;;;;;;;;;;;;;;;25.56;39.84;95335.78;4958129;28;7288;-37
2024/02/19 12:55:27;;;;;;;;;;;;;;;25.59;39.80;95341.06;4965502;28;7921;-37
2024/02/19 12:57:53;;;;;;;;;;;;;;;25.60;39.20;95339.81;4952368;28;7315;-38
2024/02/19 13:00:20;;;;;;;;;;;;;;;25.59;39.90;95335.56;4955405;28;7298;-37
2024/02/19 13:02:56;;;;;;;;;;;;;;;25.59;39.11;95332.81;4965080;28;7556;-55
2024/02/19 13:05:23;;;;;;;;;;;;;;;25.63;38.84;95335.34;4973973;28;8737;-55
2024/02/19 13:08:00;;;;;;;;;;;;;;;25.64;39.29;95332.13;4957680;28;7150;-56
2024/02/19 13:10:31;;;;;;;;;;;;;;;25.64;39.31;95331.34;4970032;28;7224;-55
2024/02/19 13:12:57;;;;;;;;;;;;;;;25.67;39.04;95336.63;4962138;28;9847;-56
2024/02/19 13:15:23;;;;;;;;;;;;;;;25.68;39.71;95329.88;5013307;28;9139;-56
2024/02/19 13:17:49;;;;;;;;;;;;;;;25.72;39.13;95335.94;5051791;28;7040;-55
2024/02/19 13:20:15;;;;;;;;;;;;;;;25.75;39.83;95337.69;5035064;28;6949;-55
2024/02/19 13:22:42;;;;;;;;;;;;;;;25.73;39.34;95334.66;5035079;28;9659;-56
2024/02/19 13:25:08;;;;;;;;;;;;;;;25.73;38.89;95337.41;5052764;28;8894;-56
2024/02/19 13:27:34;;;;;;;;;;;;;;;25.72;39.27;95344.19;5034502;28;7053;-56
2024/02/19 13:30:00;;;;;;;;;;;;;;;25.74;39.52;95344.47;5045085;28;7163;-56
2024/02/19 13:32:28;;;;;;;;;;;;;;;25.75;39.11;95345.94;5043154;28;8770;-56
2024/02/19 13:35:00;;;;;;;;;;;;;;;25.78;39.06;95342.22;5053620;28;9055;-56
2024/02/19 13:37:42;;;;;;;;;;;;;;;25.74;39.56;95336.19;5053436;28;9158;-56
2024/02/19 13:40:15;;;;;;;;;;;;;;;25.72;39.71;95340.69;5049083;28;9147;-56
2024/02/19 13:42:51;;;;;;;;;;;;;;;25.75;39.43;95340.44;5048960;28;7003;-56
2024/02/19 13:45:56;;;;;;;;;;;;;;;25.69;38.89;95347.16;5053546;28;9492;-56
2024/02/19 13:48:29;;;;;;;;;;;;;;;25.70;39.45;95351.44;5049528;28;7207;-56
2024/02/19 13:51:01;;;;;;;;;;;;;;;25.68;39.66;95343.66;5035896;28;9070;-56